sensor_id;sensor_type;location;lat;lon;timestamp;temperature;humidity
24902;DHT22;31328;51.402;0.016;2023-03-01T00:02:09;5.30;99.90
24902;DHT22;31328;51.402;0.016;2023-03-01T00:04:35;5.20;99.90
24902;DHT22;31328;51.402;0.016;2023-03-01T00:07:01;5.20;99.90
24902;DHT22;31328;51.402;0.016;2023-03-01T00:09:28;5.20;99.90
24902;DHT22;31328;51.402;0.016;2023-03-01T00:11:54;5.10;99.90
24902;DHT22;31328;51.402;0.016;2023-03-01T00:14:20;5.10;99.90
24902;DHT22;31328;51.402;0.016;2023-03-01T00:16:47;5.10;99.90
24902;DHT22;31328;51.402;0.016;2023-03-01T00:19:16;5.10;99.90
24902;DHT22;31328;51.402;0.016;2023-03-01T00:21:43;5.00;99.90
24902;DHT22;31328;51.402;0.016;2023-03-01T00:24:10;5.00;99.90
24902;DHT22;31328;51.402;0.016;2023-03-01T00:26:36;5.00;99.90
24902;DHT22;31328;51.402;0.016;2023-03-01T00:29:03;4.90;99.90
24902;DHT22;31328;51.402;0.016;2023-03-01T00:31:31;4.90;99.90
24902;DHT22;31328;51.402;0.016;2023-03-01T00:34:00;4.80;99.90
24902;DHT22;31328;51.402;0.016;2023-03-01T00:36:33;4.80;99.90
24902;DHT22;31328;51.402;0.016;2023-03-01T00:38:59;4.80;99.90
24902;DHT22;31328;51.402;0.016;2023-03-01T00:41:26;4.70;99.90
24902;DHT22;31328;51.402;0.016;2023-03-01T00:43:53;4.70;99.90
24902;DHT22;31328;51.402;0.016;2023-03-01T00:46:22;4.70;99.90
24902;DHT22;31328;51.402;0.016;2023-03-01T00:48:49;4.60;99.90
24902;DHT22;31328;51.402;0.016;2023-03-01T00:51:25;4.60;99.90
24902;DHT22;31328;51.402;0.016;2023-03-01T00:53:53;4.60;99.90
24902;DHT22;31328;51.402;0.016;2023-03-01T00:56:20;4.60;99.90
24902;DHT22;31328;51.402;0.016;2023-03-01T00:58:47;4.60;99.90
24902;DHT22;31328;51.402;0.016;2023-03-01T01:01:22;4.60;99.90
24902;DHT22;31328;51.402;0.016;2023-03-01T01:03:51;4.60;99.90
24902;DHT22;31328;51.402;0.016;2023-03-01T01:06:23;4.60;99.90
24902;DHT22;31328;51.402;0.016;2023-03-01T01:08:51;4.60;99.90
24902;DHT22;31328;51.402;0.016;2023-03-01T01:11:18;4.60;99.90
24902;DHT22;31328;51.402;0.016;2023-03-01T01:13:46;4.60;99.90
24902;DHT22;31328;51.402;0.016;2023-03-01T01:16:14;4.50;99.90
24902;DHT22;31328;51.402;0.016;2023-03-01T01:18:40;4.50;99.90
24902;DHT22;31328;51.402;0.016;2023-03-01T01:21:10;4.50;99.90
24902;DHT22;31328;51.402;0.016;2023-03-01T01:23:38;4.50;99.90
24902;DHT22;31328;51.402;0.016;2023-03-01T01:26:27;4.50;99.90
24902;DHT22;31328;51.402;0.016;2023-03-01T01:28:54;4.60;99.90
24902;DHT22;31328;51.402;0.016;2023-03-01T01:31:21;4.60;99.90
24902;DHT22;31328;51.402;0.016;2023-03-01T01:33:50;4.60;99.90
24902;DHT22;31328;51.402;0.016;2023-03-01T01:36:17;4.60;99.90
24902;DHT22;31328;51.402;0.016;2023-03-01T01:38:43;4.60;99.90
24902;DHT22;31328;51.402;0.016;2023-03-01T01:41:11;4.70;99.90
24902;DHT22;31328;51.402;0.016;2023-03-01T01:46:30;4.80;99.90
24902;DHT22;31328;51.402;0.016;2023-03-01T01:49:04;4.80;99.90
24902;DHT22;31328;51.402;0.016;2023-03-01T01:51:35;4.90;99.90
24902;DHT22;31328;51.402;0.016;2023-03-01T01:55:00;4.90;99.90
24902;DHT22;31328;51.402;0.016;2023-03-01T01:57:10;4.90;99.90
24902;DHT22;31328;51.402;0.016;2023-03-01T01:59:38;5.00;99.90
24902;DHT22;31328;51.402;0.016;2023-03-01T02:02:05;5.00;99.90
24902;DHT22;31328;51.402;0.016;2023-03-01T02:04:32;5.00;99.90
24902;DHT22;31328;51.402;0.016;2023-03-01T02:07:10;5.00;99.90
24902;DHT22;31328;51.402;0.016;2023-03-01T02:09:41;5.00;99.90
24902;DHT22;31328;51.402;0.016;2023-03-01T02:12:08;5.00;99.90
24902;DHT22;31328;51.402;0.016;2023-03-01T02:14:34;5.00;99.90
24902;DHT22;31328;51.402;0.016;2023-03-01T02:17:01;5.00;99.90
24902;DHT22;31328;51.402;0.016;2023-03-01T02:24:52;5.00;99.90
24902;DHT22;31328;51.402;0.016;2023-03-01T02:27:23;5.00;99.90
24902;DHT22;31328;51.402;0.016;2023-03-01T02:29:52;5.10;99.90
24902;DHT22;31328;51.402;0.016;2023-03-01T02:32:19;5.10;99.90
24902;DHT22;31328;51.402;0.016;2023-03-01T02:34:55;5.20;99.90
24902;DHT22;31328;51.402;0.016;2023-03-01T02:37:22;5.20;99.90
24902;DHT22;31328;51.402;0.016;2023-03-01T02:39:56;5.30;99.90
24902;DHT22;31328;51.402;0.016;2023-03-01T02:42:29;5.30;99.90
24902;DHT22;31328;51.402;0.016;2023-03-01T02:44:57;5.30;99.90
24902;DHT22;31328;51.402;0.016;2023-03-01T02:47:23;5.30;99.90
24902;DHT22;31328;51.402;0.016;2023-03-01T02:49:50;5.40;99.90
24902;DHT22;31328;51.402;0.016;2023-03-01T02:55:03;5.40;99.90
24902;DHT22;31328;51.402;0.016;2023-03-01T02:57:33;5.40;99.90
24902;DHT22;31328;51.402;0.016;2023-03-01T03:00:08;5.40;99.90
24902;DHT22;31328;51.402;0.016;2023-03-01T03:02:50;5.40;99.90
24902;DHT22;31328;51.402;0.016;2023-03-01T03:05:25;5.40;99.90
24902;DHT22;31328;51.402;0.016;2023-03-01T03:07:56;5.50;99.90
24902;DHT22;31328;51.402;0.016;2023-03-01T03:10:26;5.50;99.90
24902;DHT22;31328;51.402;0.016;2023-03-01T03:12:59;5.50;99.90
24902;DHT22;31328;51.402;0.016;2023-03-01T03:15:27;5.50;99.90
24902;DHT22;31328;51.402;0.016;2023-03-01T03:17:56;5.50;99.90
24902;DHT22;31328;51.402;0.016;2023-03-01T03:20:24;5.50;99.90
24902;DHT22;31328;51.402;0.016;2023-03-01T03:22:53;5.50;99.90
24902;DHT22;31328;51.402;0.016;2023-03-01T03:25:21;5.50;99.90
24902;DHT22;31328;51.402;0.016;2023-03-01T03:27:51;5.50;99.90
24902;DHT22;31328;51.402;0.016;2023-03-01T03:30:28;5.50;99.90
24902;DHT22;31328;51.402;0.016;2023-03-01T03:32:55;5.50;99.90
24902;DHT22;31328;51.402;0.016;2023-03-01T03:35:34;5.50;99.90
24902;DHT22;31328;51.402;0.016;2023-03-01T03:38:05;5.50;99.90
24902;DHT22;31328;51.402;0.016;2023-03-01T03:40:39;5.50;99.90
24902;DHT22;31328;51.402;0.016;2023-03-01T03:43:14;5.50;99.90
24902;DHT22;31328;51.402;0.016;2023-03-01T03:45:40;5.50;99.90
24902;DHT22;31328;51.402;0.016;2023-03-01T03:48:08;5.50;99.90
24902;DHT22;31328;51.402;0.016;2023-03-01T03:50:39;5.50;99.90
24902;DHT22;31328;51.402;0.016;2023-03-01T03:53:11;5.50;99.90
24902;DHT22;31328;51.402;0.016;2023-03-01T03:55:38;5.50;99.90
24902;DHT22;31328;51.402;0.016;2023-03-01T03:58:09;5.50;99.90
24902;DHT22;31328;51.402;0.016;2023-03-01T04:00:38;5.70;99.90
24902;DHT22;31328;51.402;0.016;2023-03-01T04:03:06;5.50;99.90
24902;DHT22;31328;51.402;0.016;2023-03-01T04:05:33;5.50;99.90
24902;DHT22;31328;51.402;0.016;2023-03-01T04:07:59;5.50;99.90
24902;DHT22;31328;51.402;0.016;2023-03-01T04:10:40;5.50;99.90
24902;DHT22;31328;51.402;0.016;2023-03-01T04:13:09;5.50;99.90
24902;DHT22;31328;51.402;0.016;2023-03-01T04:15:36;5.50;99.90
24902;DHT22;31328;51.402;0.016;2023-03-01T04:18:04;5.50;99.90
24902;DHT22;31328;51.402;0.016;2023-03-01T04:20:33;5.50;99.90
24902;DHT22;31328;51.402;0.016;2023-03-01T04:23:06;5.50;99.90
24902;DHT22;31328;51.402;0.016;2023-03-01T04:26:02;5.50;99.90
24902;DHT22;31328;51.402;0.016;2023-03-01T04:30:57;5.50;99.90
24902;DHT22;31328;51.402;0.016;2023-03-01T04:33:25;5.60;99.90
24902;DHT22;31328;51.402;0.016;2023-03-01T04:35:52;5.50;99.90
24902;DHT22;31328;51.402;0.016;2023-03-01T04:38:19;5.60;99.90
24902;DHT22;31328;51.402;0.016;2023-03-01T04:40:45;5.60;99.90
24902;DHT22;31328;51.402;0.016;2023-03-01T04:43:13;5.60;99.90
24902;DHT22;31328;51.402;0.016;2023-03-01T04:45:43;5.60;99.90
24902;DHT22;31328;51.402;0.016;2023-03-01T04:48:09;5.60;99.90
24902;DHT22;31328;51.402;0.016;2023-03-01T04:50:36;5.60;99.90
24902;DHT22;31328;51.402;0.016;2023-03-01T04:53:03;5.60;99.90
24902;DHT22;31328;51.402;0.016;2023-03-01T04:55:29;5.60;99.90
24902;DHT22;31328;51.402;0.016;2023-03-01T04:57:56;5.60;99.90
24902;DHT22;31328;51.402;0.016;2023-03-01T05:00:22;5.60;99.90
24902;DHT22;31328;51.402;0.016;2023-03-01T05:02:52;5.60;99.90
24902;DHT22;31328;51.402;0.016;2023-03-01T05:07:53;5.50;99.90
24902;DHT22;31328;51.402;0.016;2023-03-01T05:10:19;5.50;99.90
24902;DHT22;31328;51.402;0.016;2023-03-01T05:12:45;5.50;99.90
24902;DHT22;31328;51.402;0.016;2023-03-01T05:15:12;5.50;99.90
24902;DHT22;31328;51.402;0.016;2023-03-01T05:17:39;5.50;99.90
24902;DHT22;31328;51.402;0.016;2023-03-01T05:20:05;5.50;99.90
24902;DHT22;31328;51.402;0.016;2023-03-01T05:22:35;5.50;99.90
24902;DHT22;31328;51.402;0.016;2023-03-01T05:25:02;5.50;99.90
24902;DHT22;31328;51.402;0.016;2023-03-01T05:27:29;5.40;99.90
24902;DHT22;31328;51.402;0.016;2023-03-01T05:29:56;5.50;99.90
24902;DHT22;31328;51.402;0.016;2023-03-01T05:32:22;5.40;99.90
24902;DHT22;31328;51.402;0.016;2023-03-01T05:34:49;5.50;99.90
24902;DHT22;31328;51.402;0.016;2023-03-01T05:37:15;5.50;99.90
24902;DHT22;31328;51.402;0.016;2023-03-01T05:39:41;5.50;99.90
24902;DHT22;31328;51.402;0.016;2023-03-01T05:42:11;5.50;99.90
24902;DHT22;31328;51.402;0.016;2023-03-01T05:44:38;5.50;99.90
24902;DHT22;31328;51.402;0.016;2023-03-01T05:47:04;5.50;99.90
24902;DHT22;31328;51.402;0.016;2023-03-01T05:49:31;5.50;99.90
24902;DHT22;31328;51.402;0.016;2023-03-01T05:51:58;5.50;99.90
24902;DHT22;31328;51.402;0.016;2023-03-01T05:54:24;5.50;99.90
24902;DHT22;31328;51.402;0.016;2023-03-01T05:56:50;5.50;99.90
24902;DHT22;31328;51.402;0.016;2023-03-01T05:59:17;5.50;99.90
24902;DHT22;31328;51.402;0.016;2023-03-01T06:01:43;5.50;99.90
24902;DHT22;31328;51.402;0.016;2023-03-01T06:04:09;5.50;99.90
24902;DHT22;31328;51.402;0.016;2023-03-01T06:06:36;5.50;99.90
24902;DHT22;31328;51.402;0.016;2023-03-01T06:09:06;5.50;99.90
24902;DHT22;31328;51.402;0.016;2023-03-01T06:11:35;5.50;99.90
24902;DHT22;31328;51.402;0.016;2023-03-01T06:14:03;5.50;99.90
24902;DHT22;31328;51.402;0.016;2023-03-01T06:16:29;5.50;99.90
24902;DHT22;31328;51.402;0.016;2023-03-01T06:18:56;5.50;99.90
24902;DHT22;31328;51.402;0.016;2023-03-01T06:21:22;5.40;99.90
24902;DHT22;31328;51.402;0.016;2023-03-01T06:23:48;5.40;99.90
24902;DHT22;31328;51.402;0.016;2023-03-01T06:26:15;5.40;99.90
24902;DHT22;31328;51.402;0.016;2023-03-01T06:28:41;5.40;99.90
24902;DHT22;31328;51.402;0.016;2023-03-01T06:31:07;5.40;99.90
24902;DHT22;31328;51.402;0.016;2023-03-01T06:33:34;5.40;99.90
24902;DHT22;31328;51.402;0.016;2023-03-01T06:36:02;5.40;99.90
24902;DHT22;31328;51.402;0.016;2023-03-01T06:38:28;5.40;99.90
24902;DHT22;31328;51.402;0.016;2023-03-01T06:40:55;5.40;99.90
24902;DHT22;31328;51.402;0.016;2023-03-01T06:43:23;5.40;99.90
24902;DHT22;31328;51.402;0.016;2023-03-01T06:45:49;5.40;99.90
24902;DHT22;31328;51.402;0.016;2023-03-01T06:48:16;5.40;99.90
24902;DHT22;31328;51.402;0.016;2023-03-01T06:50:43;5.40;99.90
24902;DHT22;31328;51.402;0.016;2023-03-01T06:53:09;5.40;99.90
24902;DHT22;31328;51.402;0.016;2023-03-01T06:55:36;5.40;99.90
24902;DHT22;31328;51.402;0.016;2023-03-01T06:58:03;5.40;99.90
24902;DHT22;31328;51.402;0.016;2023-03-01T07:00:29;5.40;99.90
24902;DHT22;31328;51.402;0.016;2023-03-01T07:02:59;5.40;99.90
24902;DHT22;31328;51.402;0.016;2023-03-01T07:05:25;5.40;99.90
24902;DHT22;31328;51.402;0.016;2023-03-01T07:07:53;5.40;99.90
24902;DHT22;31328;51.402;0.016;2023-03-01T07:10:20;5.40;99.90
24902;DHT22;31328;51.402;0.016;2023-03-01T07:12:46;5.40;99.90
24902;DHT22;31328;51.402;0.016;2023-03-01T07:15:12;5.40;99.90
24902;DHT22;31328;51.402;0.016;2023-03-01T07:17:41;5.40;99.90
24902;DHT22;31328;51.402;0.016;2023-03-01T07:20:07;5.50;99.90
24902;DHT22;31328;51.402;0.016;2023-03-01T07:22:34;5.40;99.90
24902;DHT22;31328;51.402;0.016;2023-03-01T07:25:00;5.50;99.90
24902;DHT22;31328;51.402;0.016;2023-03-01T07:27:26;5.50;99.90
24902;DHT22;31328;51.402;0.016;2023-03-01T07:29:53;5.50;99.90
24902;DHT22;31328;51.402;0.016;2023-03-01T07:32:19;5.50;99.90
24902;DHT22;31328;51.402;0.016;2023-03-01T07:34:45;5.50;99.90
24902;DHT22;31328;51.402;0.016;2023-03-01T07:37:11;5.50;99.90
24902;DHT22;31328;51.402;0.016;2023-03-01T07:39:38;5.50;99.90
24902;DHT22;31328;51.402;0.016;2023-03-01T07:42:04;5.50;99.90
24902;DHT22;31328;51.402;0.016;2023-03-01T07:44:30;5.50;99.90
24902;DHT22;31328;51.402;0.016;2023-03-01T07:46:56;5.50;99.90
24902;DHT22;31328;51.402;0.016;2023-03-01T07:49:24;5.50;99.90
24902;DHT22;31328;51.402;0.016;2023-03-01T07:51:52;5.60;99.90
24902;DHT22;31328;51.402;0.016;2023-03-01T07:54:19;5.60;99.90
24902;DHT22;31328;51.402;0.016;2023-03-01T07:56:45;5.60;99.90
24902;DHT22;31328;51.402;0.016;2023-03-01T07:59:11;5.60;99.90
24902;DHT22;31328;51.402;0.016;2023-03-01T08:01:38;5.60;99.90
24902;DHT22;31328;51.402;0.016;2023-03-01T08:04:04;5.60;99.90
24902;DHT22;31328;51.402;0.016;2023-03-01T08:06:34;5.60;99.90
24902;DHT22;31328;51.402;0.016;2023-03-01T08:09:01;5.60;99.90
24902;DHT22;31328;51.402;0.016;2023-03-01T08:11:28;5.70;99.90
24902;DHT22;31328;51.402;0.016;2023-03-01T08:13:54;5.60;99.90
24902;DHT22;31328;51.402;0.016;2023-03-01T08:16:21;5.70;99.90
24902;DHT22;31328;51.402;0.016;2023-03-01T08:18:47;5.80;99.90
24902;DHT22;31328;51.402;0.016;2023-03-01T08:21:17;5.80;99.90
24902;DHT22;31328;51.402;0.016;2023-03-01T08:23:44;5.80;99.90
24902;DHT22;31328;51.402;0.016;2023-03-01T08:28:39;5.90;99.90
24902;DHT22;31328;51.402;0.016;2023-03-01T08:31:20;5.90;99.90
24902;DHT22;31328;51.402;0.016;2023-03-01T08:33:48;6.00;99.90
24902;DHT22;31328;51.402;0.016;2023-03-01T08:36:17;6.00;99.90
24902;DHT22;31328;51.402;0.016;2023-03-01T08:38:44;6.00;99.90
24902;DHT22;31328;51.402;0.016;2023-03-01T08:41:10;6.00;99.90
24902;DHT22;31328;51.402;0.016;2023-03-01T08:43:37;6.00;99.90
24902;DHT22;31328;51.402;0.016;2023-03-01T08:46:03;6.00;99.90
24902;DHT22;31328;51.402;0.016;2023-03-01T08:48:29;6.00;99.90
24902;DHT22;31328;51.402;0.016;2023-03-01T08:50:56;6.00;99.90
24902;DHT22;31328;51.402;0.016;2023-03-01T08:53:22;6.00;99.90
24902;DHT22;31328;51.402;0.016;2023-03-01T08:55:50;6.00;99.90
24902;DHT22;31328;51.402;0.016;2023-03-01T08:58:16;6.00;99.90
24902;DHT22;31328;51.402;0.016;2023-03-01T09:00:42;6.00;99.90
24902;DHT22;31328;51.402;0.016;2023-03-01T09:03:09;6.00;99.90
24902;DHT22;31328;51.402;0.016;2023-03-01T09:05:35;6.10;99.90
24902;DHT22;31328;51.402;0.016;2023-03-01T09:08:03;6.10;99.90
24902;DHT22;31328;51.402;0.016;2023-03-01T09:10:29;6.20;99.90
24902;DHT22;31328;51.402;0.016;2023-03-01T09:12:56;6.20;99.90
24902;DHT22;31328;51.402;0.016;2023-03-01T09:15:22;6.20;99.90
24902;DHT22;31328;51.402;0.016;2023-03-01T09:17:48;6.30;99.90
24902;DHT22;31328;51.402;0.016;2023-03-01T09:20:15;6.30;99.90
24902;DHT22;31328;51.402;0.016;2023-03-01T09:22:41;6.30;99.90
24902;DHT22;31328;51.402;0.016;2023-03-01T09:25:07;6.40;99.90
24902;DHT22;31328;51.402;0.016;2023-03-01T09:27:34;6.40;99.90
24902;DHT22;31328;51.402;0.016;2023-03-01T09:30:00;6.40;99.90
24902;DHT22;31328;51.402;0.016;2023-03-01T09:32:27;6.50;99.90
24902;DHT22;31328;51.402;0.016;2023-03-01T09:34:53;6.50;99.90
24902;DHT22;31328;51.402;0.016;2023-03-01T09:37:33;6.50;99.90
24902;DHT22;31328;51.402;0.016;2023-03-01T09:40:00;6.60;99.90
24902;DHT22;31328;51.402;0.016;2023-03-01T09:42:27;6.70;99.90
24902;DHT22;31328;51.402;0.016;2023-03-01T09:45:26;6.70;99.90
24902;DHT22;31328;51.402;0.016;2023-03-01T09:47:54;6.80;99.90
24902;DHT22;31328;51.402;0.016;2023-03-01T09:50:22;6.90;99.90
24902;DHT22;31328;51.402;0.016;2023-03-01T09:55:46;7.00;99.90
24902;DHT22;31328;51.402;0.016;2023-03-01T10:06:41;7.20;99.90
24902;DHT22;31328;51.402;0.016;2023-03-01T10:09:13;7.20;99.90
24902;DHT22;31328;51.402;0.016;2023-03-01T10:11:45;7.20;99.90
24902;DHT22;31328;51.402;0.016;2023-03-01T10:14:32;7.20;99.90
24902;DHT22;31328;51.402;0.016;2023-03-01T10:19:33;7.20;99.90
24902;DHT22;31328;51.402;0.016;2023-03-01T10:22:41;7.20;99.90
24902;DHT22;31328;51.402;0.016;2023-03-01T10:25:13;7.20;99.90
24902;DHT22;31328;51.402;0.016;2023-03-01T10:27:52;7.20;99.90
24902;DHT22;31328;51.402;0.016;2023-03-01T10:30:38;7.30;99.90
24902;DHT22;31328;51.402;0.016;2023-03-01T10:33:21;7.40;99.90
24902;DHT22;31328;51.402;0.016;2023-03-01T10:35:49;7.60;99.90
24902;DHT22;31328;51.402;0.016;2023-03-01T10:38:17;7.70;99.90
24902;DHT22;31328;51.402;0.016;2023-03-01T10:41:09;7.80;99.90
24902;DHT22;31328;51.402;0.016;2023-03-01T10:43:46;7.80;99.90
24902;DHT22;31328;51.402;0.016;2023-03-01T10:49:14;7.80;99.90
24902;DHT22;31328;51.402;0.016;2023-03-01T10:51:43;7.80;99.90
24902;DHT22;31328;51.402;0.016;2023-03-01T10:54:28;7.80;99.90
24902;DHT22;31328;51.402;0.016;2023-03-01T10:56:56;7.70;99.90
24902;DHT22;31328;51.402;0.016;2023-03-01T10:59:27;7.70;99.90
24902;DHT22;31328;51.402;0.016;2023-03-01T11:02:22;7.60;99.90
24902;DHT22;31328;51.402;0.016;2023-03-01T11:05:01;7.60;99.90
24902;DHT22;31328;51.402;0.016;2023-03-01T11:07:28;7.60;99.90
24902;DHT22;31328;51.402;0.016;2023-03-01T11:09:54;7.60;99.90
24902;DHT22;31328;51.402;0.016;2023-03-01T11:12:21;7.80;99.90
24902;DHT22;31328;51.402;0.016;2023-03-01T11:14:53;7.60;99.90
24902;DHT22;31328;51.402;0.016;2023-03-01T11:17:27;7.70;99.90
24902;DHT22;31328;51.402;0.016;2023-03-01T11:25:20;7.70;99.90
24902;DHT22;31328;51.402;0.016;2023-03-01T11:27:49;7.70;99.90
24902;DHT22;31328;51.402;0.016;2023-03-01T11:35:41;7.70;99.90
24902;DHT22;31328;51.402;0.016;2023-03-01T11:38:22;7.70;99.90
24902;DHT22;31328;51.402;0.016;2023-03-01T11:41:06;7.70;99.90
24902;DHT22;31328;51.402;0.016;2023-03-01T11:43:51;7.70;99.90
24902;DHT22;31328;51.402;0.016;2023-03-01T11:57:05;7.60;99.70
24902;DHT22;31328;51.402;0.016;2023-03-01T11:59:46;7.60;99.80
24902;DHT22;31328;51.402;0.016;2023-03-01T12:05:20;7.60;99.90
24902;DHT22;31328;51.402;0.016;2023-03-01T12:07:58;7.60;99.90
24902;DHT22;31328;51.402;0.016;2023-03-01T12:21:30;7.70;99.60
24902;DHT22;31328;51.402;0.016;2023-03-01T12:32:10;7.70;99.50
24902;DHT22;31328;51.402;0.016;2023-03-01T12:38:14;7.70;99.70
24902;DHT22;31328;51.402;0.016;2023-03-01T12:51:09;7.80;99.70
24902;DHT22;31328;51.402;0.016;2023-03-01T12:53:45;7.90;99.80
24902;DHT22;31328;51.402;0.016;2023-03-01T12:56:16;7.90;99.80
24902;DHT22;31328;51.402;0.016;2023-03-01T13:15:33;8.00;99.90
24902;DHT22;31328;51.402;0.016;2023-03-01T13:20:47;7.80;99.90
24902;DHT22;31328;51.402;0.016;2023-03-01T13:33:54;7.70;99.90
24902;DHT22;31328;51.402;0.016;2023-03-01T13:44:33;7.70;99.90
24902;DHT22;31328;51.402;0.016;2023-03-01T13:49:47;7.80;99.90
24902;DHT22;31328;51.402;0.016;2023-03-01T13:52:48;7.80;99.90
24902;DHT22;31328;51.402;0.016;2023-03-01T13:57:45;7.80;99.90
24902;DHT22;31328;51.402;0.016;2023-03-01T14:00:36;7.90;99.90
24902;DHT22;31328;51.402;0.016;2023-03-01T14:03:20;7.90;99.90
24902;DHT22;31328;51.402;0.016;2023-03-01T14:06:06;7.90;99.90
24902;DHT22;31328;51.402;0.016;2023-03-01T14:08:35;7.90;99.90
24902;DHT22;31328;51.402;0.016;2023-03-01T14:19:39;7.90;99.90
24902;DHT22;31328;51.402;0.016;2023-03-01T14:22:21;7.90;99.90
24902;DHT22;31328;51.402;0.016;2023-03-01T14:24:51;7.90;99.90
24902;DHT22;31328;51.402;0.016;2023-03-01T14:27:18;7.90;99.90
24902;DHT22;31328;51.402;0.016;2023-03-01T14:29:58;7.80;99.90
24902;DHT22;31328;51.402;0.016;2023-03-01T14:32:27;7.80;99.90
24902;DHT22;31328;51.402;0.016;2023-03-01T14:34:54;7.80;99.90
24902;DHT22;31328;51.402;0.016;2023-03-01T14:37:30;7.80;99.90
24902;DHT22;31328;51.402;0.016;2023-03-01T14:39:58;7.70;99.90
24902;DHT22;31328;51.402;0.016;2023-03-01T14:42:29;7.70;99.90
24902;DHT22;31328;51.402;0.016;2023-03-01T14:44:57;7.70;99.90
24902;DHT22;31328;51.402;0.016;2023-03-01T14:47:27;7.80;99.90
24902;DHT22;31328;51.402;0.016;2023-03-01T14:50:01;7.80;99.90
24902;DHT22;31328;51.402;0.016;2023-03-01T14:52:39;7.80;99.90
24902;DHT22;31328;51.402;0.016;2023-03-01T14:55:17;7.90;99.90
24902;DHT22;31328;51.402;0.016;2023-03-01T14:57:47;7.90;99.90
24902;DHT22;31328;51.402;0.016;2023-03-01T15:00:29;8.00;99.90
24902;DHT22;31328;51.402;0.016;2023-03-01T15:03:06;8.00;99.90
24902;DHT22;31328;51.402;0.016;2023-03-01T15:05:36;8.00;99.90
24902;DHT22;31328;51.402;0.016;2023-03-01T15:08:03;8.00;99.90
24902;DHT22;31328;51.402;0.016;2023-03-01T15:10:33;8.00;99.90
24902;DHT22;31328;51.402;0.016;2023-03-01T15:13:14;8.00;99.90
24902;DHT22;31328;51.402;0.016;2023-03-01T15:15:47;8.00;99.90
24902;DHT22;31328;51.402;0.016;2023-03-01T15:18:20;8.00;99.90
24902;DHT22;31328;51.402;0.016;2023-03-01T15:20:48;8.00;99.90
24902;DHT22;31328;51.402;0.016;2023-03-01T15:23:26;8.10;99.90
24902;DHT22;31328;51.402;0.016;2023-03-01T15:25:54;8.10;99.90
24902;DHT22;31328;51.402;0.016;2023-03-01T15:28:28;8.10;99.90
24902;DHT22;31328;51.402;0.016;2023-03-01T15:31:02;8.10;99.90
24902;DHT22;31328;51.402;0.016;2023-03-01T15:33:32;8.10;99.90
24902;DHT22;31328;51.402;0.016;2023-03-01T15:36:01;8.20;99.90
24902;DHT22;31328;51.402;0.016;2023-03-01T15:38:52;8.20;99.90
24902;DHT22;31328;51.402;0.016;2023-03-01T15:41:27;8.20;99.90
24902;DHT22;31328;51.402;0.016;2023-03-01T15:43:53;8.20;99.90
24902;DHT22;31328;51.402;0.016;2023-03-01T15:46:33;8.30;99.90
24902;DHT22;31328;51.402;0.016;2023-03-01T15:49:03;8.30;99.90
24902;DHT22;31328;51.402;0.016;2023-03-01T15:51:35;8.40;99.90
24902;DHT22;31328;51.402;0.016;2023-03-01T15:54:17;8.40;99.90
24902;DHT22;31328;51.402;0.016;2023-03-01T15:56:44;8.40;99.90
24902;DHT22;31328;51.402;0.016;2023-03-01T15:59:12;8.50;99.90
24902;DHT22;31328;51.402;0.016;2023-03-01T16:01:40;8.50;99.90
24902;DHT22;31328;51.402;0.016;2023-03-01T16:04:10;8.50;99.80
24902;DHT22;31328;51.402;0.016;2023-03-01T16:06:37;8.50;99.80
24902;DHT22;31328;51.402;0.016;2023-03-01T16:09:05;8.40;99.70
24902;DHT22;31328;51.402;0.016;2023-03-01T16:11:31;8.40;99.70
24902;DHT22;31328;51.402;0.016;2023-03-01T16:14:00;8.40;99.70
24902;DHT22;31328;51.402;0.016;2023-03-01T16:16:26;8.40;99.70
24902;DHT22;31328;51.402;0.016;2023-03-01T16:18:52;8.40;99.70
24902;DHT22;31328;51.402;0.016;2023-03-01T16:21:22;8.40;99.70
24902;DHT22;31328;51.402;0.016;2023-03-01T16:23:49;8.40;99.70
24902;DHT22;31328;51.402;0.016;2023-03-01T16:26:17;8.30;99.60
24902;DHT22;31328;51.402;0.016;2023-03-01T16:28:45;8.30;99.60
24902;DHT22;31328;51.402;0.016;2023-03-01T16:31:12;8.20;99.50
24902;DHT22;31328;51.402;0.016;2023-03-01T16:33:40;8.20;99.50
24902;DHT22;31328;51.402;0.016;2023-03-01T16:36:08;8.20;99.60
24902;DHT22;31328;51.402;0.016;2023-03-01T16:38:35;8.20;99.70
24902;DHT22;31328;51.402;0.016;2023-03-01T16:41:01;8.20;99.70
24902;DHT22;31328;51.402;0.016;2023-03-01T16:43:28;8.10;99.60
24902;DHT22;31328;51.402;0.016;2023-03-01T16:45:57;8.10;99.60
24902;DHT22;31328;51.402;0.016;2023-03-01T16:48:25;8.10;99.70
24902;DHT22;31328;51.402;0.016;2023-03-01T16:51:01;8.00;99.80
24902;DHT22;31328;51.402;0.016;2023-03-01T16:53:28;8.00;99.80
24902;DHT22;31328;51.402;0.016;2023-03-01T16:55:58;8.00;99.90
24902;DHT22;31328;51.402;0.016;2023-03-01T16:58:25;8.00;99.80
24902;DHT22;31328;51.402;0.016;2023-03-01T17:00:52;7.90;99.80
24902;DHT22;31328;51.402;0.016;2023-03-01T17:03:23;7.90;99.80
24902;DHT22;31328;51.402;0.016;2023-03-01T17:05:50;7.90;99.90
24902;DHT22;31328;51.402;0.016;2023-03-01T17:08:17;7.90;99.90
24902;DHT22;31328;51.402;0.016;2023-03-01T17:10:44;7.90;99.90
24902;DHT22;31328;51.402;0.016;2023-03-01T17:13:11;7.90;99.90
24902;DHT22;31328;51.402;0.016;2023-03-01T17:15:40;7.90;99.90
24902;DHT22;31328;51.402;0.016;2023-03-01T17:18:08;7.90;99.90
24902;DHT22;31328;51.402;0.016;2023-03-01T17:20:35;7.90;99.90
24902;DHT22;31328;51.402;0.016;2023-03-01T17:23:02;7.80;99.90
24902;DHT22;31328;51.402;0.016;2023-03-01T17:25:28;7.80;99.90
24902;DHT22;31328;51.402;0.016;2023-03-01T17:27:54;7.80;99.90
24902;DHT22;31328;51.402;0.016;2023-03-01T17:30:21;7.80;99.90
24902;DHT22;31328;51.402;0.016;2023-03-01T17:32:47;7.70;99.90
24902;DHT22;31328;51.402;0.016;2023-03-01T17:35:14;7.70;99.90
24902;DHT22;31328;51.402;0.016;2023-03-01T17:37:40;7.70;99.90
24902;DHT22;31328;51.402;0.016;2023-03-01T17:40:11;7.70;99.90
24902;DHT22;31328;51.402;0.016;2023-03-01T17:42:38;7.70;99.90
24902;DHT22;31328;51.402;0.016;2023-03-01T17:45:05;7.60;99.90
24902;DHT22;31328;51.402;0.016;2023-03-01T17:47:31;7.60;99.90
24902;DHT22;31328;51.402;0.016;2023-03-01T17:49:58;7.60;99.90
24902;DHT22;31328;51.402;0.016;2023-03-01T17:52:25;7.60;99.90
24902;DHT22;31328;51.402;0.016;2023-03-01T17:54:51;7.60;99.90
24902;DHT22;31328;51.402;0.016;2023-03-01T17:57:18;7.60;99.90
24902;DHT22;31328;51.402;0.016;2023-03-01T17:59:44;7.60;99.90
24902;DHT22;31328;51.402;0.016;2023-03-01T18:02:11;7.50;99.80
24902;DHT22;31328;51.402;0.016;2023-03-01T18:04:38;7.50;99.90
24902;DHT22;31328;51.402;0.016;2023-03-01T18:07:05;7.50;99.90
24902;DHT22;31328;51.402;0.016;2023-03-01T18:09:31;7.50;99.90
24902;DHT22;31328;51.402;0.016;2023-03-01T18:11:58;7.50;99.90
24902;DHT22;31328;51.402;0.016;2023-03-01T18:14:24;7.50;99.90
24902;DHT22;31328;51.402;0.016;2023-03-01T18:16:54;7.50;99.80
24902;DHT22;31328;51.402;0.016;2023-03-01T18:19:20;7.50;99.90
24902;DHT22;31328;51.402;0.016;2023-03-01T18:21:47;7.50;99.90
24902;DHT22;31328;51.402;0.016;2023-03-01T18:24:13;7.50;99.90
24902;DHT22;31328;51.402;0.016;2023-03-01T18:26:40;7.40;99.80